createdAt,value
2022-12-12T00:01:04.683Z,12.75
2022-12-12T00:03:54.013Z,11.85
2022-12-12T00:06:41.998Z,11.68
2022-12-12T00:09:30.006Z,10.82
2022-12-12T00:12:17.988Z,11.85
2022-12-12T00:15:06.748Z,11.57
2022-12-12T00:17:56.345Z,12.10
2022-12-12T00:20:44.101Z,11.68
2022-12-12T00:23:32.165Z,11.73
2022-12-12T00:26:24.495Z,12.20
2022-12-12T00:29:12.791Z,12.50
2022-12-12T00:32:00.819Z,12.10
2022-12-12T00:34:50.319Z,12.10
2022-12-12T00:37:38.423Z,13.35
2022-12-12T00:40:26.478Z,12.75
2022-12-12T00:43:14.583Z,12.90
2022-12-12T00:46:03.163Z,11.60
2022-12-12T00:48:51.078Z,11.90
2022-12-12T00:51:40.271Z,11.88
2022-12-12T00:54:28.104Z,12.15
2022-12-12T00:57:16.056Z,12.45
2022-12-12T01:00:04.575Z,11.82
2022-12-12T01:02:52.788Z,12.25
2022-12-12T01:05:40.596Z,11.30
2022-12-12T01:08:29.879Z,13.23
2022-12-12T01:11:19.060Z,12.38
2022-12-12T01:14:07.640Z,11.00
2022-12-12T01:16:55.404Z,12.32
2022-12-12T01:19:43.487Z,12.88
2022-12-12T01:22:31.531Z,11.60
2022-12-12T01:25:21.624Z,12.43
2022-12-12T01:28:10.202Z,12.23
2022-12-12T01:30:58.367Z,12.25
2022-12-12T01:33:47.143Z,11.50
2022-12-12T01:36:35.282Z,11.68
2022-12-12T01:39:23.147Z,12.50
2022-12-12T01:42:15.450Z,12.60
2022-12-12T01:45:03.783Z,11.90
2022-12-12T01:47:51.499Z,11.90
2022-12-12T01:50:40.342Z,13.18
2022-12-12T01:53:30.735Z,13.15
2022-12-12T01:56:22.448Z,11.70
2022-12-12T01:59:16.590Z,11.02
2022-12-12T02:02:07.663Z,11.95
2022-12-12T02:04:55.976Z,11.73
2022-12-12T02:07:44.059Z,11.80
2022-12-12T02:10:32.266Z,12.00
2022-12-12T02:13:25.289Z,12.38
2022-12-12T02:16:26.136Z,11.95
2022-12-12T02:19:37.255Z,13.20
2022-12-12T02:22:38.277Z,13.05
2022-12-12T02:25:49.828Z,13.48
2022-12-12T02:29:00.780Z,12.00
2022-12-12T02:31:55.047Z,12.57
2022-12-12T02:34:50.344Z,12.25
2022-12-12T02:37:46.721Z,13.15
2022-12-12T02:40:41.503Z,12.50
2022-12-12T02:43:35.818Z,13.13
2022-12-12T02:46:33.986Z,12.73
2022-12-12T02:49:28.116Z,13.55
2022-12-12T02:52:20.103Z,12.63
2022-12-12T02:55:08.930Z,13.07
2022-12-12T02:57:57.235Z,12.98
2022-12-12T03:01:11.564Z,13.40
2022-12-12T03:04:22.313Z,13.30
2022-12-12T03:07:38.099Z,14.05
2022-12-12T03:10:44.000Z,13.13
2022-12-12T03:13:56.418Z,13.25
2022-12-12T03:16:50.873Z,12.38
2022-12-12T03:19:43.605Z,13.32
2022-12-12T03:22:41.690Z,12.73
2022-12-12T03:25:36.727Z,12.70
2022-12-12T03:28:47.226Z,13.38
2022-12-12T03:31:41.470Z,13.80
2022-12-12T03:34:35.406Z,13.13
2022-12-12T03:37:26.815Z,14.23
2022-12-12T03:40:20.606Z,13.50
2022-12-12T03:43:15.848Z,13.63
2022-12-12T03:46:10.773Z,13.38
2022-12-12T03:49:04.828Z,12.13
2022-12-12T03:52:00.100Z,14.32
2022-12-12T03:54:53.240Z,13.30
2022-12-12T04:01:00.404Z,13.18
2022-12-12T04:03:57.927Z,13.70
2022-12-12T04:06:51.700Z,13.20
2022-12-12T04:09:57.383Z,13.98
2022-12-12T04:13:03.367Z,12.65
2022-12-12T04:16:05.338Z,12.80
2022-12-12T04:18:59.368Z,13.73
2022-12-12T04:22:15.375Z,13.48
2022-12-12T04:25:10.925Z,12.60
2022-12-12T04:28:06.116Z,12.38
2022-12-12T04:30:54.410Z,15.18
2022-12-12T04:33:51.948Z,13.45
2022-12-12T04:36:42.236Z,13.25
2022-12-12T04:39:31.580Z,13.57
2022-12-12T04:42:24.738Z,14.70
2022-12-12T04:48:06.971Z,13.60
2022-12-12T04:50:56.871Z,14.02
2022-12-12T04:53:49.778Z,14.75
2022-12-12T04:56:43.805Z,13.73
2022-12-12T04:59:32.288Z,13.43
2022-12-12T05:02:32.283Z,13.98
2022-12-12T05:05:26.198Z,13.55
2022-12-12T05:08:21.016Z,13.65
2022-12-12T05:11:09.473Z,13.23
2022-12-12T05:13:57.197Z,14.05
2022-12-12T05:16:48.586Z,14.02
2022-12-12T05:19:37.892Z,14.55
2022-12-12T05:22:26.120Z,13.23
2022-12-12T05:25:14.802Z,13.95
2022-12-12T05:28:02.719Z,13.20
2022-12-12T05:30:53.261Z,13.48
2022-12-12T05:33:41.336Z,14.10
2022-12-12T05:36:30.842Z,14.77
2022-12-12T05:39:19.168Z,14.57
2022-12-12T05:42:07.131Z,14.52
2022-12-12T05:44:55.186Z,14.98
2022-12-12T05:47:50.626Z,14.63
2022-12-12T05:50:38.668Z,14.00
2022-12-12T05:53:27.827Z,14.18
2022-12-12T05:56:15.834Z,14.10
2022-12-12T05:59:03.451Z,13.98
2022-12-12T06:02:06.432Z,14.75
2022-12-12T06:04:54.736Z,14.55
2022-12-12T06:07:42.676Z,13.52
2022-12-12T06:10:32.103Z,14.52
2022-12-12T06:13:19.755Z,14.32
2022-12-12T06:16:08.949Z,13.77
2022-12-12T06:18:57.723Z,13.27
2022-12-12T06:21:50.788Z,13.13
2022-12-12T06:24:38.676Z,13.73
2022-12-12T06:27:28.128Z,13.30
2022-12-12T06:30:16.279Z,13.45
2022-12-12T06:33:04.276Z,12.13
2022-12-12T06:36:00.409Z,12.35
2022-12-12T06:38:48.549Z,13.00
2022-12-12T06:41:36.548Z,11.82
2022-12-12T06:44:25.781Z,12.38
2022-12-12T06:47:13.596Z,11.88
2022-12-12T06:50:04.604Z,11.85
2022-12-12T06:52:52.798Z,12.50
2022-12-12T06:55:43.811Z,12.27
2022-12-12T06:58:31.917Z,11.90
2022-12-12T07:01:25.113Z,13.02
2022-12-12T07:04:14.394Z,11.82
2022-12-12T07:07:02.488Z,12.32
2022-12-12T07:10:23.709Z,12.45
2022-12-12T07:13:11.724Z,12.57
2022-12-12T07:15:59.755Z,12.30
2022-12-12T07:18:52.068Z,12.63
2022-12-12T07:21:40.362Z,13.07
2022-12-12T07:24:28.505Z,12.75
2022-12-12T07:27:21.806Z,12.27
2022-12-12T07:30:12.412Z,12.10
2022-12-12T07:33:15.808Z,13.00
2022-12-12T07:36:06.247Z,12.88
2022-12-12T07:38:59.836Z,12.32
2022-12-12T07:41:47.864Z,12.73
2022-12-12T07:46:03.617Z,12.13
2022-12-12T07:49:49.784Z,11.85
2022-12-12T07:52:42.872Z,12.32
2022-12-12T07:58:20.874Z,12.13
2022-12-12T08:01:15.066Z,12.20
2022-12-12T08:04:06.395Z,12.07
2022-12-12T08:07:01.678Z,11.70
2022-12-12T08:10:01.342Z,11.98
2022-12-12T08:12:49.450Z,12.07
2022-12-12T08:15:37.578Z,11.30
2022-12-12T08:18:25.479Z,11.57
2022-12-12T08:21:23.213Z,12.07
2022-12-12T08:24:15.279Z,11.68
2022-12-12T08:27:05.142Z,12.27
2022-12-12T08:29:53.738Z,11.93
2022-12-12T08:32:41.863Z,12.02
2022-12-12T08:35:32.548Z,11.55
2022-12-12T08:38:20.487Z,11.30
2022-12-12T08:41:09.820Z,11.90
2022-12-12T08:43:59.325Z,12.00
2022-12-12T08:46:47.216Z,12.13
2022-12-12T08:49:36.295Z,10.70
2022-12-12T08:52:24.376Z,11.00
2022-12-12T08:55:12.314Z,10.82
2022-12-12T08:58:00.130Z,11.38
2022-12-12T09:00:49.457Z,11.40
2022-12-12T09:03:37.196Z,12.98
2022-12-12T09:06:27.136Z,10.82
2022-12-12T09:09:15.341Z,11.27
2022-12-12T09:12:03.649Z,13.02
2022-12-12T09:14:51.944Z,11.68
2022-12-12T09:17:41.211Z,12.85
2022-12-12T09:20:29.181Z,15.30
2022-12-12T09:23:17.483Z,15.25
2022-12-12T09:26:09.673Z,13.63
2022-12-12T09:28:57.618Z,15.30
2022-12-12T09:31:45.503Z,15.55
2022-12-12T09:34:35.174Z,16.42
2022-12-12T09:37:23.368Z,15.68
2022-12-12T09:40:19.016Z,14.30
2022-12-12T09:43:07.462Z,16.27
2022-12-12T09:45:55.584Z,15.73
2022-12-12T09:48:46.378Z,14.75
2022-12-12T09:51:37.553Z,14.30
2022-12-12T09:54:27.837Z,16.70
2022-12-12T10:00:59.943Z,12.95
2022-12-12T10:03:57.306Z,12.38
2022-12-12T10:06:52.208Z,12.18
2022-12-12T10:09:54.135Z,17.00
2022-12-12T10:12:42.412Z,15.20
2022-12-12T10:15:36.431Z,14.43
2022-12-12T10:18:29.893Z,17.95
2022-12-12T10:21:22.893Z,17.02
2022-12-12T10:24:24.743Z,17.30
2022-12-12T10:27:18.290Z,14.32
2022-12-12T10:30:16.934Z,13.68
2022-12-12T10:33:17.607Z,13.32
2022-12-12T10:36:16.885Z,13.80
2022-12-12T10:39:17.576Z,13.30
2022-12-12T10:42:14.022Z,12.93
2022-12-12T10:45:24.709Z,13.02
2022-12-12T10:48:12.960Z,13.13
2022-12-12T10:51:04.495Z,13.35
2022-12-12T10:53:55.429Z,13.10
2022-12-12T10:57:06.129Z,12.93
2022-12-12T10:59:58.548Z,13.50
2022-12-12T11:02:48.850Z,12.27
2022-12-12T11:05:40.770Z,12.63
2022-12-12T11:08:33.543Z,12.32
2022-12-12T11:11:23.566Z,11.75
2022-12-12T11:14:28.383Z,12.88
2022-12-12T11:17:28.071Z,11.73
2022-12-12T11:20:20.362Z,12.45
2022-12-12T11:23:18.473Z,11.45
2022-12-12T11:26:13.351Z,11.15
2022-12-12T11:29:07.809Z,11.50
2022-12-12T11:31:57.370Z,11.02
2022-12-12T11:34:50.387Z,11.25
2022-12-12T11:40:41.955Z,11.20
2022-12-12T11:43:31.614Z,11.00
2022-12-12T11:46:23.104Z,11.63
2022-12-12T11:49:21.018Z,11.30
2022-12-12T11:52:21.396Z,12.20
2022-12-12T11:55:16.006Z,12.20
2022-12-12T11:58:21.398Z,12.65
2022-12-12T12:01:16.966Z,11.75
2022-12-12T12:04:26.760Z,13.13
2022-12-12T12:07:31.995Z,12.05
2022-12-12T12:10:40.731Z,12.70
2022-12-12T12:13:50.016Z,12.40
2022-12-12T12:16:49.861Z,13.20
2022-12-12T12:19:46.502Z,12.20
2022-12-12T12:22:48.795Z,12.90
2022-12-12T12:25:45.265Z,12.03
2022-12-12T12:28:59.100Z,12.88
2022-12-12T12:31:58.713Z,12.30
2022-12-12T12:35:00.570Z,12.50
2022-12-12T12:38:07.052Z,11.90
2022-12-12T12:41:22.420Z,12.77
2022-12-12T12:44:23.873Z,11.85
2022-12-12T12:47:22.964Z,12.43
2022-12-12T12:50:22.739Z,12.20
2022-12-12T12:53:26.750Z,11.68
2022-12-12T12:56:26.926Z,11.25
2022-12-12T12:59:19.467Z,12.18
2022-12-12T13:02:26.949Z,11.38
2022-12-12T13:05:21.854Z,11.40
2022-12-12T13:08:21.043Z,11.13
2022-12-12T13:11:11.712Z,11.95
2022-12-12T13:14:10.819Z,11.02
2022-12-12T13:17:06.377Z,11.77
2022-12-12T13:19:57.498Z,11.23
2022-12-12T13:22:58.435Z,11.38
2022-12-12T13:25:55.510Z,10.82
2022-12-12T13:28:48.693Z,10.55
2022-12-12T13:32:01.771Z,11.43
2022-12-12T13:34:52.558Z,10.70
2022-12-12T13:37:48.848Z,11.23
2022-12-12T13:40:42.414Z,10.88
2022-12-12T13:43:42.443Z,10.20
2022-12-12T13:46:43.139Z,10.63
2022-12-12T13:49:40.332Z,10.48
2022-12-12T13:52:33.250Z,11.10
2022-12-12T13:58:32.569Z,10.40
2022-12-12T14:01:40.469Z,11.18
2022-12-12T14:04:30.888Z,10.43
2022-12-12T14:07:23.739Z,11.23
2022-12-12T14:10:25.978Z,10.65
2022-12-12T14:13:19.514Z,10.55
2022-12-12T14:19:08.741Z,9.70
2022-12-12T14:21:57.148Z,10.63
2022-12-12T14:24:59.410Z,9.98
2022-12-12T14:28:19.168Z,9.25
2022-12-12T14:31:15.927Z,9.70
2022-12-12T14:34:17.518Z,9.57
2022-12-12T14:37:37.388Z,9.90
2022-12-12T14:40:30.658Z,10.10
2022-12-12T14:43:25.360Z,9.75
2022-12-12T14:46:17.333Z,9.68
2022-12-12T14:49:06.816Z,10.95
2022-12-12T14:51:58.935Z,12.65
2022-12-12T14:54:46.709Z,13.00
2022-12-12T14:57:35.529Z,12.30
2022-12-12T15:00:25.536Z,12.32
2022-12-12T15:03:14.725Z,13.43
2022-12-12T15:06:30.934Z,11.55
2022-12-12T15:09:24.535Z,10.88
2022-12-12T15:12:18.760Z,10.50
2022-12-12T15:15:23.028Z,11.48
2022-12-12T15:18:13.076Z,11.70
2022-12-12T15:21:01.183Z,10.23
2022-12-12T15:23:49.109Z,10.85
2022-12-12T15:26:37.097Z,9.82
2022-12-12T15:29:27.074Z,11.18
2022-12-12T15:32:20.522Z,10.65
2022-12-12T15:35:18.104Z,10.20
2022-12-12T15:38:12.620Z,8.98
2022-12-12T15:41:06.645Z,10.15
2022-12-12T15:43:58.002Z,10.13
2022-12-12T15:46:47.399Z,9.85
2022-12-12T15:49:40.305Z,9.55
2022-12-12T15:55:24.832Z,11.82
2022-12-12T15:58:29.170Z,11.27
2022-12-12T16:01:22.274Z,10.50
2022-12-12T16:07:22.301Z,9.85
2022-12-12T16:10:29.565Z,10.85
2022-12-12T16:13:26.276Z,11.10
2022-12-12T16:16:37.407Z,10.65
2022-12-12T16:19:37.927Z,11.30
2022-12-12T16:22:33.649Z,10.82
2022-12-12T16:25:23.612Z,10.88
2022-12-12T16:28:24.975Z,11.38
2022-12-12T16:31:18.399Z,11.13
2022-12-12T16:34:06.540Z,11.05
2022-12-12T16:36:54.490Z,11.02
2022-12-12T16:39:42.548Z,12.88
2022-12-12T16:42:30.856Z,13.85
2022-12-12T16:45:20.452Z,13.63
2022-12-12T16:48:15.884Z,13.88
2022-12-12T16:51:06.210Z,15.27
2022-12-12T16:53:54.386Z,14.63
2022-12-12T16:56:42.485Z,13.15
2022-12-12T16:59:30.527Z,14.27
2022-12-12T17:02:22.793Z,14.77
2022-12-12T17:05:18.439Z,14.43
2022-12-12T17:08:06.847Z,15.63
2022-12-12T17:11:09.916Z,14.40
2022-12-12T17:13:58.986Z,14.95
2022-12-12T17:16:46.843Z,13.73
2022-12-12T17:19:36.233Z,13.95
2022-12-12T17:22:24.162Z,14.25
2022-12-12T17:25:12.431Z,15.07
2022-12-12T17:28:01.112Z,13.00
2022-12-12T17:30:50.849Z,14.85
2022-12-12T17:33:49.473Z,12.85
2022-12-12T17:36:39.596Z,14.10
2022-12-12T17:39:27.425Z,14.05
2022-12-12T17:42:15.498Z,13.63
2022-12-12T17:45:03.430Z,13.15
2022-12-12T17:47:53.328Z,12.43
2022-12-12T17:50:42.028Z,13.93
2022-12-12T17:53:36.620Z,12.68
2022-12-12T17:56:29.993Z,12.52
2022-12-12T17:59:21.428Z,12.25
2022-12-12T18:02:13.223Z,12.90
2022-12-12T18:05:04.134Z,11.93
2022-12-12T18:07:51.854Z,11.18
2022-12-12T18:10:41.311Z,12.35
2022-12-12T18:13:29.525Z,11.95
2022-12-12T18:16:36.479Z,11.95
2022-12-12T18:19:27.198Z,11.63
2022-12-12T18:22:15.002Z,11.10
2022-12-12T18:25:03.164Z,11.65
2022-12-12T18:28:01.322Z,11.30
2022-12-12T18:30:51.133Z,12.02
2022-12-12T18:33:39.166Z,12.80
2022-12-12T18:36:30.033Z,11.00
2022-12-12T18:39:18.343Z,11.23
2022-12-12T18:42:06.651Z,12.32
2022-12-12T18:44:56.055Z,11.20
2022-12-12T18:47:47.727Z,12.02
2022-12-12T18:50:35.651Z,12.32
2022-12-12T18:53:23.879Z,12.68
2022-12-12T18:56:14.876Z,11.93
2022-12-12T18:59:04.409Z,13.13
2022-12-12T19:01:53.951Z,13.80
2022-12-12T19:04:44.258Z,13.48
2022-12-12T19:07:32.448Z,12.80
2022-12-12T19:10:20.345Z,13.02
2022-12-12T19:13:08.177Z,12.60
2022-12-12T19:15:57.915Z,13.90
2022-12-12T19:18:47.887Z,13.32
2022-12-12T19:21:36.397Z,13.35
2022-12-12T19:24:24.199Z,14.30
2022-12-12T19:27:12.491Z,13.05
2022-12-12T19:30:00.499Z,13.20
2022-12-12T19:32:49.080Z,13.55
2022-12-12T19:35:39.463Z,13.35
2022-12-12T19:38:27.433Z,12.18
2022-12-12T19:41:17.010Z,12.70
2022-12-12T19:44:08.782Z,12.15
2022-12-12T19:46:56.994Z,12.60
2022-12-12T19:49:44.730Z,12.57
2022-12-12T19:52:34.190Z,12.60
2022-12-12T19:55:21.920Z,13.07
2022-12-12T19:58:10.035Z,12.43
2022-12-12T20:00:58.085Z,12.65
2022-12-12T20:03:50.895Z,13.40
2022-12-12T20:06:45.548Z,13.77
2022-12-12T20:09:36.943Z,12.63
2022-12-12T20:12:24.806Z,13.52
2022-12-12T20:15:12.985Z,13.07
2022-12-12T20:18:02.118Z,12.15
2022-12-12T20:20:53.766Z,12.57
2022-12-12T20:23:47.025Z,12.65
2022-12-12T20:26:36.677Z,12.13
2022-12-12T20:29:24.611Z,13.02
2022-12-12T20:32:13.756Z,12.50
2022-12-12T20:35:01.721Z,13.80
2022-12-12T20:37:49.818Z,12.55
2022-12-12T20:40:40.658Z,11.93
2022-12-12T20:43:30.827Z,12.20
2022-12-12T20:46:21.464Z,12.27
2022-12-12T20:49:11.836Z,12.57
2022-12-12T20:51:59.952Z,11.45
2022-12-12T20:54:48.092Z,12.15
2022-12-12T20:57:36.018Z,11.95
2022-12-12T21:00:26.667Z,12.15
2022-12-12T21:03:14.822Z,12.95
2022-12-12T21:06:02.921Z,11.40
2022-12-12T21:08:52.155Z,11.98
2022-12-12T21:11:42.639Z,12.48
2022-12-12T21:14:32.933Z,12.57
2022-12-12T21:17:22.449Z,11.38
2022-12-12T21:20:10.870Z,12.15
2022-12-12T21:22:59.392Z,12.73
2022-12-12T21:25:47.081Z,11.68
2022-12-12T21:28:35.384Z,11.93
2022-12-12T21:31:25.563Z,12.20
2022-12-12T21:34:16.479Z,11.15
2022-12-12T21:37:04.133Z,11.40
2022-12-12T21:39:54.599Z,12.32
2022-12-12T21:42:42.366Z,11.98
2022-12-12T21:45:30.590Z,10.82
2022-12-12T21:48:18.529Z,12.02
2022-12-12T21:51:10.597Z,11.32
2022-12-12T21:53:58.381Z,11.10
2022-12-12T21:56:46.980Z,11.75
2022-12-12T21:59:37.289Z,11.73
2022-12-12T22:02:25.291Z,11.80
2022-12-12T22:05:13.405Z,12.48
2022-12-12T22:08:03.858Z,11.88
2022-12-12T22:10:54.483Z,11.15
2022-12-12T22:13:43.517Z,11.77
2022-12-12T22:16:33.682Z,11.65
2022-12-12T22:19:21.797Z,12.05
2022-12-12T22:22:09.511Z,12.13
2022-12-12T22:24:58.895Z,11.20
2022-12-12T22:27:46.512Z,10.93
2022-12-12T22:30:34.567Z,11.50
2022-12-12T22:33:22.835Z,11.02
2022-12-12T22:36:12.718Z,12.50
2022-12-12T22:39:01.653Z,10.80
2022-12-12T22:41:53.555Z,10.90
2022-12-12T22:44:41.530Z,11.55
2022-12-12T22:47:29.548Z,10.95
2022-12-12T22:50:18.090Z,10.38
2022-12-12T22:53:06.195Z,11.30
2022-12-12T22:55:54.054Z,10.57
2022-12-12T22:58:43.989Z,11.32
2022-12-12T23:01:32.491Z,10.63
2022-12-12T23:04:20.553Z,11.43
2022-12-12T23:07:08.388Z,10.98
2022-12-12T23:09:58.933Z,10.50
2022-12-12T23:12:47.078Z,11.15
2022-12-12T23:15:42.375Z,11.32
2022-12-12T23:18:30.343Z,10.60
2022-12-12T23:21:20.912Z,10.88
2022-12-12T23:24:09.659Z,10.40
2022-12-12T23:26:57.673Z,9.95
2022-12-12T23:29:46.296Z,10.48
2022-12-12T23:32:35.925Z,11.38
2022-12-12T23:35:24.005Z,11.25
2022-12-12T23:38:11.946Z,11.27
2022-12-12T23:41:04.669Z,11.60
2022-12-12T23:43:52.751Z,10.80
2022-12-12T23:46:41.023Z,10.85
2022-12-12T23:49:30.314Z,12.27
2022-12-12T23:52:18.300Z,11.65
2022-12-12T23:55:10.096Z,11.43
2022-12-12T23:57:58.145Z,10.85
